Time;durP1;ratioP1;P1;durP2;ratioP2;P2;SDS_P1;SDS_P2;PMS_P1;PMS_P2;Temp;Humidity;BMP_temperature;BMP_pressure;BME280_temperature;BME280_humidity;BME280_pressure;Samples;Min_cycle;Max_cycle;Signal;HPM_P1;HPM_P2
2022/10/23 00:01:17;;;;;;;21.77;8.63;;;;;;;12.49;64.66;100310.91;126315;1086;104222;-75
2022/10/23 00:03:46;;;;;;;19.90;8.80;;;;;;;12.48;64.66;100296.00;126379;1086;104155;-75
2022/10/23 00:06:15;;;;;;;23.63;9.33;;;;;;;12.50;64.41;100304.81;126370;1086;104226;-75
2022/10/23 00:08:45;;;;;;;25.17;9.50;;;;;;;12.49;64.79;100295.13;126307;1086;104277;-75
2022/10/23 00:11:15;;;;;;;21.23;8.87;;;;;;;12.50;64.58;100290.77;125950;1089;104308;-74
2022/10/23 00:13:44;;;;;;;23.00;10.00;;;;;;;12.49;64.74;100288.98;126324;1086;104232;-74
2022/10/23 00:16:13;;;;;;;24.10;9.53;;;;;;;12.48;64.58;100282.84;126339;1086;104245;-75
2022/10/23 00:18:41;;;;;;;20.70;9.33;;;;;;;12.48;64.59;100288.10;126314;1085;104258;-74
2022/10/23 00:21:11;;;;;;;22.07;9.67;;;;;;;12.46;64.73;100284.52;126268;1085;102152;-75
2022/10/23 00:23:39;;;;;;;21.90;8.97;;;;;;;12.39;65.26;100274.72;126299;1086;104746;-74
2022/10/23 00:26:10;;;;;;;22.20;9.17;;;;;;;12.45;64.71;100289.75;126272;1086;104214;-75
2022/10/23 00:28:38;;;;;;;25.30;9.77;;;;;;;12.43;64.97;100287.08;126305;1086;104232;-75
2022/10/23 00:31:07;;;;;;;23.27;9.80;;;;;;;12.45;64.73;100273.95;126350;1086;104240;-75
2022/10/23 00:33:35;;;;;;;22.97;9.10;;;;;;;12.44;64.76;100278.34;126017;1089;104270;-74
2022/10/23 00:36:06;;;;;;;22.37;10.33;;;;;;;12.44;64.89;100265.19;126376;1086;104155;-74
2022/10/23 00:38:35;;;;;;;22.37;9.57;;;;;;;12.45;64.83;100260.80;126320;1086;104168;-75
2022/10/23 00:41:08;;;;;;;22.33;9.40;;;;;;;12.45;64.90;100264.34;126322;1086;104225;-75
2022/10/23 00:44:00;;;;;;;24.43;10.30;;;;;;;12.45;65.22;100274.87;126390;1086;103382;-75
2022/10/23 00:46:29;;;;;;;23.63;10.23;;;;;;;12.46;65.08;100275.75;126370;1086;104169;-75
2022/10/23 00:48:58;;;;;;;22.47;9.93;;;;;;;12.47;64.93;100269.64;126294;1086;102917;-74
2022/10/23 00:51:32;;;;;;;24.87;9.47;;;;;;;12.48;64.90;100272.31;126362;1086;104156;-75
2022/10/23 00:54:03;;;;;;;23.30;9.83;;;;;;;12.47;65.04;100269.64;126370;1086;104191;-75
2022/10/23 00:56:36;;;;;;;20.57;9.67;;;;;;;12.46;65.07;100259.95;126361;1086;102206;-75
2022/10/23 00:59:04;;;;;;;23.98;9.75;;;;;;;12.44;64.96;100252.03;126325;1086;104162;-74
2022/10/23 01:01:33;;;;;;;22.50;10.07;;;;;;;12.44;65.16;100264.30;126290;1086;104592;-74
2022/10/23 01:04:02;;;;;;;24.00;9.67;;;;;;;12.45;65.11;100261.71;126328;1086;104188;-75
2022/10/23 01:06:36;;;;;;;25.67;10.23;;;;;;;12.45;64.92;100258.17;126336;1086;104228;-75
2022/10/23 01:09:12;;;;;;;28.03;10.97;;;;;;;12.44;65.34;100259.05;126395;1086;101953;-74
2022/10/23 01:11:46;;;;;;;20.63;9.20;;;;;;;12.44;65.15;100267.81;125925;1090;118976;-75
2022/10/23 01:14:26;;;;;;;24.90;9.83;;;;;;;12.44;65.17;100273.08;126343;1086;103740;-74
2022/10/23 01:17:00;;;;;;;26.37;9.90;;;;;;;12.45;65.39;100292.38;126006;1089;104253;-74
2022/10/23 01:19:46;;;;;;;26.97;9.90;;;;;;;12.45;65.39;100280.13;126015;1089;104156;-75
2022/10/23 01:22:31;;;;;;;24.07;10.18;;;;;;;12.43;65.50;100267.78;126381;1086;104790;-75
2022/10/23 01:25:02;;;;;;;23.07;10.53;;;;;;;12.43;65.52;100267.78;126324;1086;104172;-74
2022/10/23 01:27:35;;;;;;;21.17;10.13;;;;;;;12.43;65.36;100273.04;126358;1086;104359;-75
2022/10/23 01:30:08;;;;;;;20.70;10.30;;;;;;;12.43;65.37;100280.94;126322;1086;102850;-75
2022/10/23 01:32:48;;;;;;;25.87;9.70;;;;;;;12.38;65.73;100263.28;126333;1086;104265;-74
2022/10/23 01:35:22;;;;;;;22.43;10.13;;;;;;;12.29;66.31;100230.61;125965;1089;104213;-75
2022/10/23 01:38:05;;;;;;;23.13;9.80;;;;;;;12.24;66.19;100235.75;125925;1089;104333;-75
2022/10/23 01:40:43;;;;;;;22.77;10.10;;;;;;;12.22;65.83;100256.76;125924;1089;102866;-75
2022/10/23 01:43:16;;;;;;;21.63;9.57;;;;;;;12.25;66.10;100270.83;126317;1086;102802;-74
2022/10/23 01:45:49;;;;;;;22.33;9.77;;;;;;;12.24;66.11;100264.69;126353;1086;104168;-74
2022/10/23 01:48:24;;;;;;;23.83;10.10;;;;;;;12.23;66.11;100269.07;125938;1089;104255;-75
2022/10/23 01:50:55;;;;;;;21.63;9.63;;;;;;;12.26;65.93;100280.52;125963;1089;104156;-75
2022/10/23 01:53:30;;;;;;;24.77;9.80;;;;;;;12.26;66.12;100283.14;126386;1085;104370;-74
2022/10/23 01:56:02;;;;;;;23.83;10.27;;;;;;;12.25;66.14;100289.24;126374;1085;104251;-75
2022/10/23 01:58:33;;;;;;;21.33;10.20;;;;;;;12.25;66.02;100277.00;125960;1086;104398;-75
2022/10/23 02:01:05;;;;;;;20.03;9.50;;;;;;;12.27;66.24;100287.56;126265;1086;104231;-75
2022/10/23 02:03:37;;;;;;;22.00;10.07;;;;;;;12.27;66.26;100292.83;125979;1089;102870;-74
2022/10/23 02:06:06;;;;;;;24.63;10.27;;;;;;;12.26;66.26;100312.08;126315;1086;104037;-75
2022/10/23 02:08:35;;;;;;;24.27;10.40;;;;;;;12.26;66.20;100312.96;126393;1086;104296;-75
2022/10/23 02:11:08;;;;;;;23.20;10.67;;;;;;;12.27;66.48;100324.39;126355;1086;104302;-74
2022/10/23 02:13:43;;;;;;;26.10;11.22;;;;;;;12.27;66.33;100329.66;126395;1086;104612;-75
2022/10/23 02:16:23;;;;;;;27.50;10.93;;;;;;;12.28;66.25;100320.89;125990;1089;104242;-75
2022/10/23 02:19:01;;;;;;;22.10;9.17;;;;;;;12.28;66.42;100327.06;126347;1086;104328;-75
2022/10/23 02:21:34;;;;;;;20.23;9.80;;;;;;;12.28;66.46;100319.17;125972;1089;103414;-75
2022/10/23 02:24:06;;;;;;;23.80;10.17;;;;;;;12.29;66.37;100328.83;126361;1086;102164;-74
2022/10/23 02:26:40;;;;;;;24.10;9.67;;;;;;;12.28;66.62;100329.70;125970;1089;104373;-75
2022/10/23 02:29:13;;;;;;;22.57;9.90;;;;;;;12.25;66.76;100321.73;126009;1089;102332;-76
2022/10/23 02:31:44;;;;;;;26.23;10.03;;;;;;;12.22;66.70;100332.17;125972;1089;104652;-75
2022/10/23 02:34:12;;;;;;;21.30;9.90;;;;;;;12.23;66.67;100339.19;126363;1086;104344;-75
2022/10/23 02:36:42;;;;;;;23.40;10.67;;;;;;;12.26;66.62;100338.39;125986;1089;104391;-75
2022/10/23 02:39:10;;;;;;;25.13;10.40;;;;;;;12.27;66.98;100343.69;125970;1089;102924;-75
2022/10/23 02:41:43;;;;;;;21.33;10.07;;;;;;;12.29;66.80;100341.10;125906;1089;104324;-74
2022/10/23 02:44:27;;;;;;;22.13;9.70;;;;;;;12.30;66.80;100353.42;125912;1086;104156;-74
2022/10/23 02:47:07;;;;;;;24.47;10.32;;;;;;;12.29;66.71;100354.25;126367;1086;101928;-76
2022/10/23 02:49:43;;;;;;;25.40;10.10;;;;;;;12.29;67.04;100362.14;126392;1086;103572;-75
2022/10/23 02:52:20;;;;;;;27.50;10.47;;;;;;;12.28;66.80;100362.98;126011;1089;104227;-75
2022/10/23 02:55:06;;;;;;;21.53;10.70;;;;;;;12.25;67.28;100368.16;126090;1087;104159;-75
2022/10/23 02:57:50;;;;;;;21.23;10.50;;;;;;;12.21;66.96;100365.45;126501;1086;104219;-76
2022/10/23 03:00:21;;;;;;;18.70;9.87;;;;;;;12.21;67.35;100367.20;126033;1089;104727;-75
2022/10/23 03:02:56;;;;;;;22.23;10.23;;;;;;;12.20;67.30;100368.95;126505;1086;104165;-74
2022/10/23 03:05:29;;;;;;;21.50;10.20;;;;;;;12.19;67.51;100372.42;127214;1089;104259;-74
2022/10/23 03:07:57;;;;;;;26.20;10.63;;;;;;;12.18;67.64;100375.01;126177;1089;101906;-74
2022/10/23 03:10:26;;;;;;;21.43;10.47;;;;;;;12.17;67.68;100384.66;126391;1089;102150;-74
2022/10/23 03:12:54;;;;;;;23.80;11.40;;;;;;;12.11;67.68;100386.23;126928;1086;102955;-74
2022/10/23 03:15:23;;;;;;;24.27;11.60;;;;;;;11.99;67.72;100389.40;126372;1089;104153;-74
2022/10/23 03:17:51;;;;;;;24.20;12.70;;;;;;;11.84;68.08;100388.09;127360;1089;104236;-75
2022/10/23 03:20:20;;;;;;;22.70;12.80;;;;;;;11.72;68.11;100387.73;127831;1086;104246;-74
2022/10/23 03:22:48;;;;;;;23.97;12.20;;;;;;;11.62;68.53;100385.67;126055;1089;104319;-74
2022/10/23 03:25:17;;;;;;;27.70;13.20;;;;;;;11.53;68.27;100381.05;126512;1086;104260;-75
2022/10/23 03:27:46;;;;;;;25.20;13.50;;;;;;;11.46;68.66;100390.46;126103;1089;104309;-75
2022/10/23 03:30:16;;;;;;;28.27;14.00;;;;;;;11.38;68.73;100391.09;126289;1089;101905;-74
2022/10/23 03:32:45;;;;;;;26.40;14.67;;;;;;;11.28;68.49;100387.27;126541;1086;104204;-76
2022/10/23 03:35:14;;;;;;;30.60;14.90;;;;;;;11.18;69.48;100385.22;126781;1086;103361;-74
2022/10/23 03:37:42;;;;;;;28.00;15.30;;;;;;;11.10;69.26;100391.11;126206;1089;102821;-75
2022/10/23 03:40:14;;;;;;;29.87;14.80;;;;;;;11.01;69.69;100393.44;126179;1089;104162;-75
2022/10/23 03:42:42;;;;;;;27.63;14.73;;;;;;;10.91;69.87;100392.27;126635;1085;104612;-75
2022/10/23 03:45:13;;;;;;;31.73;16.27;;;;;;;10.82;70.35;100399.83;126144;1089;104152;-75
2022/10/23 03:47:41;;;;;;;28.47;16.07;;;;;;;10.75;70.06;100398.75;126453;1086;104401;-75
2022/10/23 03:50:12;;;;;;;28.73;16.17;;;;;;;10.70;70.82;100402.05;126167;1089;102492;-75
2022/10/23 03:52:40;;;;;;;28.70;15.60;;;;;;;10.66;70.49;100398.44;126168;1089;104392;-74
2022/10/23 03:55:12;;;;;;;30.07;15.97;;;;;;;10.61;71.16;100398.28;126689;1089;104213;-74
2022/10/23 03:57:40;;;;;;;32.53;17.27;;;;;;;10.58;71.15;100402.51;126275;1090;102786;-75
2022/10/23 04:00:11;;;;;;;29.30;16.07;;;;;;;10.55;71.59;100405.03;126209;1090;102286;-74
2022/10/23 04:02:45;;;;;;;31.50;16.67;;;;;;;10.53;71.66;100402.38;126639;1086;104207;-75
2022/10/23 04:05:14;;;;;;;30.97;17.30;;;;;;;10.50;71.59;100402.28;126599;1086;104235;-75
2022/10/23 04:07:42;;;;;;;29.23;16.93;;;;;;;10.48;71.79;100403.94;126320;1089;101944;-75
2022/10/23 04:10:11;;;;;;;32.47;17.60;;;;;;;10.47;72.12;100407.42;126259;1089;104799;-75
2022/10/23 04:12:40;;;;;;;31.33;16.23;;;;;;;10.46;72.04;100404.74;126322;1088;104255;-74
2022/10/23 04:15:10;;;;;;;30.37;17.43;;;;;;;10.45;71.97;100410.81;127664;1086;102388;-75
2022/10/23 04:17:38;;;;;;;31.35;17.15;;;;;;;10.45;72.21;100405.58;127369;1086;104156;-75
2022/10/23 04:20:08;;;;;;;29.23;16.37;;;;;;;10.46;72.15;100409.99;127998;1085;104632;-74
2022/10/23 04:22:36;;;;;;;30.93;16.63;;;;;;;10.42;72.89;100417.75;128207;1086;104286;-74
2022/10/23 04:25:07;;;;;;;27.87;17.20;;;;;;;10.41;72.22;100415.95;126640;1090;104408;-74
2022/10/23 04:27:36;;;;;;;31.97;17.37;;;;;;;10.43;72.45;100419.52;126623;1089;104209;-74
2022/10/23 04:30:05;;;;;;;31.97;17.13;;;;;;;10.42;72.88;100415.12;127375;1086;104226;-75
2022/10/23 04:32:34;;;;;;;31.93;17.23;;;;;;;10.45;73.07;100408.19;127446;1086;103282;-74
2022/10/23 04:35:03;;;;;;;31.60;18.07;;;;;;;10.47;73.24;100410.05;126979;1086;104197;-74
2022/10/23 04:37:32;;;;;;;29.13;16.40;;;;;;;10.50;72.90;100418.02;128131;1085;103276;-75
2022/10/23 04:40:01;;;;;;;30.27;17.67;;;;;;;10.53;73.66;100414.59;127625;1086;104271;-74
2022/10/23 04:42:30;;;;;;;31.33;16.77;;;;;;;10.53;74.23;100425.08;126662;1089;102373;-74
2022/10/23 04:45:00;;;;;;;29.17;15.53;;;;;;;10.52;74.71;100416.33;126702;1089;104159;-74
2022/10/23 04:47:29;;;;;;;30.97;16.97;;;;;;;10.49;74.26;100416.22;126741;1089;102995;-73
2022/10/23 04:50:00;;;;;;;29.87;15.93;;;;;;;10.50;74.89;100428.52;126685;1089;104283;-74
2022/10/23 04:52:46;;;;;;;30.90;16.87;;;;;;;10.51;75.01;100434.64;127246;1086;103279;-74
2022/10/23 04:55:34;;;;;;;27.97;16.67;;;;;;;10.50;75.15;100435.47;127253;1086;102777;-73
2022/10/23 04:58:15;;;;;;;28.60;16.33;;;;;;;10.49;75.10;100439.84;126832;1089;101831;-74
2022/10/23 05:00:45;;;;;;;30.43;16.50;;;;;;;10.49;74.95;100441.58;127269;1086;103069;-74
2022/10/23 05:03:18;;;;;;;27.97;16.33;;;;;;;10.48;74.93;100442.41;127029;1086;105037;-74
2022/10/23 05:05:47;;;;;;;28.37;17.07;;;;;;;10.48;75.26;100440.66;127230;1086;104156;-74
2022/10/23 05:08:34;;;;;;;31.90;18.00;;;;;;;10.50;75.36;100433.77;127345;1086;102234;-74
2022/10/23 05:11:20;;;;;;;30.47;16.60;;;;;;;10.53;75.39;100438.20;126596;1089;102652;-73
2022/10/23 05:13:50;;;;;;;31.00;17.97;;;;;;;10.56;75.37;100443.55;126879;1089;101961;-74
2022/10/23 05:16:33;;;;;;;29.67;17.57;;;;;;;10.59;75.23;100446.29;126650;1089;104254;-74
2022/10/23 05:19:01;;;;;;;30.03;18.33;;;;;;;10.63;76.00;100448.19;127278;1086;104210;-75
2022/10/23 05:21:33;;;;;;;28.50;17.30;;;;;;;10.68;75.73;100448.34;126730;1089;104232;-74
2022/10/23 05:24:02;;;;;;;27.57;16.20;;;;;;;10.72;76.54;100456.38;126468;1089;104200;-73
2022/10/23 05:26:31;;;;;;;31.60;17.40;;;;;;;10.74;76.18;100454.69;126518;1089;102252;-74
2022/10/23 05:29:03;;;;;;;27.93;16.73;;;;;;;10.77;76.50;100454.80;126502;1090;104069;-74
2022/10/23 05:31:34;;;;;;;32.10;18.20;;;;;;;10.79;76.42;100463.60;126761;1089;104158;-74
2022/10/23 05:34:07;;;;;;;30.00;16.73;;;;;;;10.85;76.43;100477.80;126423;1089;104235;-75
2022/10/23 05:36:37;;;;;;;29.83;17.37;;;;;;;10.89;76.96;100471.80;126747;1086;102600;-74
2022/10/23 05:39:05;;;;;;;30.50;17.40;;;;;;;10.94;77.41;100471.13;126388;1090;104239;-74
2022/10/23 05:41:34;;;;;;;29.23;16.73;;;;;;;10.97;77.16;100465.97;126344;1087;104337;-74
2022/10/23 05:44:03;;;;;;;29.20;17.23;;;;;;;11.03;77.14;100481.05;126418;1087;104155;-74
2022/10/23 05:46:49;;;;;;;30.70;16.93;;;;;;;11.09;77.08;100481.22;126863;1086;104328;-74
2022/10/23 05:49:36;;;;;;;33.57;17.90;;;;;;;11.16;78.06;100498.10;126739;1086;102417;-75
2022/10/23 05:52:40;;;;;;;31.70;17.03;;;;;;;11.23;78.26;100499.19;126661;1086;102272;-74
2022/10/23 05:55:28;;;;;;;30.10;17.67;;;;;;;11.26;78.84;100505.42;126344;1087;102892;-74
2022/10/23 05:58:18;;;;;;;30.83;18.20;;;;;;;11.27;79.08;100501.08;126248;1089;104255;-73
2022/10/23 06:01:06;;;;;;;29.57;17.82;;;;;;;11.26;78.53;100505.42;126385;1089;102128;-74
2022/10/23 06:03:51;;;;;;;32.53;18.00;;;;;;;11.25;78.86;100513.25;126387;1089;102860;-74
2022/10/23 06:06:20;;;;;;;34.07;18.13;;;;;;;11.26;80.21;100520.30;126400;1089;104197;-74
2022/10/23 06:08:50;;;;;;;29.43;18.60;;;;;;;11.23;79.43;100517.58;126565;1089;102208;-74
2022/10/23 06:11:20;;;;;;;31.00;18.10;;;;;;;11.21;79.02;100520.15;127093;1086;103247;-73
2022/10/23 06:13:57;;;;;;;31.23;17.87;;;;;;;11.22;79.79;100518.41;126427;1089;104222;-74
2022/10/23 06:16:25;;;;;;;31.83;18.90;;;;;;;11.25;79.46;100518.50;126477;1090;104152;-74
2022/10/23 06:18:56;;;;;;;33.40;19.90;;;;;;;11.28;80.19;100513.35;126370;1088;103030;-74
2022/10/23 06:21:25;;;;;;;32.63;19.37;;;;;;;11.33;79.89;100515.30;126375;1089;102789;-75
2022/10/23 06:23:55;;;;;;;33.77;17.97;;;;;;;11.39;79.37;100514.63;127018;1086;104260;-74
2022/10/23 06:26:42;;;;;;;32.20;18.50;;;;;;;11.43;79.94;100519.11;126717;1086;104215;-74
2022/10/23 06:29:16;;;;;;;33.70;19.67;;;;;;;11.48;79.71;100521.89;126399;1087;102327;-74
2022/10/23 06:31:45;;;;;;;34.57;19.10;;;;;;;11.51;80.16;100522.91;126475;1089;104232;-73
2022/10/23 06:34:13;;;;;;;34.17;19.10;;;;;;;11.55;80.01;100529.14;126446;1089;104183;-74
2022/10/23 06:36:43;;;;;;;34.83;19.30;;;;;;;11.60;79.66;100530.17;126520;1089;104303;-74
2022/10/23 06:39:47;;;;;;;31.97;18.57;;;;;;;11.63;80.14;100535.52;126240;1089;104572;-74
2022/10/23 06:42:39;;;;;;;31.13;17.80;;;;;;;11.66;80.02;100537.38;126876;1085;104204;-74
2022/10/23 06:45:26;;;;;;;35.00;19.47;;;;;;;11.71;81.09;100527.88;126432;1089;103027;-74
2022/10/23 06:47:55;;;;;;;33.30;20.03;;;;;;;11.75;80.72;100531.48;126959;1086;103001;-74
2022/10/23 06:50:32;;;;;;;33.73;19.17;;;;;;;11.82;81.31;100529.10;127075;1086;104180;-74
2022/10/23 06:53:05;;;;;;;36.40;20.37;;;;;;;11.88;80.96;100520.52;126442;1089;104213;-74
2022/10/23 06:55:34;;;;;;;34.37;19.47;;;;;;;11.94;80.30;100525.13;127060;1086;102013;-74
2022/10/23 06:58:09;;;;;;;32.90;18.30;;;;;;;12.02;80.66;100528.87;126574;1089;104246;-74
2022/10/23 07:00:38;;;;;;;34.67;19.13;;;;;;;12.08;80.28;100531.69;126990;1086;102066;-74
2022/10/23 07:03:07;;;;;;;32.17;17.97;;;;;;;12.12;80.72;100535.29;127951;1085;102799;-74
2022/10/23 07:05:36;;;;;;;32.43;19.77;;;;;;;12.13;81.01;100542.34;126418;1090;102177;-74
2022/10/23 07:08:06;;;;;;;30.60;18.33;;;;;;;12.14;80.49;100539.77;126464;1089;102206;-74
2022/10/23 07:10:41;;;;;;;33.28;18.35;;;;;;;12.18;81.19;100525.83;126542;1089;102209;-74
2022/10/23 07:13:11;;;;;;;31.63;18.37;;;;;;;12.23;81.28;100534.77;128062;1086;104031;-74
2022/10/23 07:15:57;;;;;;;33.33;19.27;;;;;;;12.29;80.77;100533.16;126520;1089;104258;-74
2022/10/23 07:18:26;;;;;;;35.20;19.70;;;;;;;12.35;80.72;100531.59;126556;1089;102393;-74
2022/10/23 07:21:14;;;;;;;33.83;18.30;;;;;;;12.47;80.75;100535.45;127928;1085;101959;-74
2022/10/23 07:23:42;;;;;;;33.90;18.90;;;;;;;12.51;80.93;100532.95;126864;1085;104321;-75
2022/10/23 07:26:15;;;;;;;32.20;18.77;;;;;;;12.58;80.84;100531.37;126873;1086;104200;-74
2022/10/23 07:28:45;;;;;;;35.20;18.83;;;;;;;12.56;80.61;100538.34;126361;1089;104328;-74
2022/10/23 07:31:15;;;;;;;33.83;18.20;;;;;;;12.53;80.61;100541.77;127860;1085;104101;-74
2022/10/23 07:34:05;;;;;;;30.67;18.93;;;;;;;12.47;81.05;100532.81;126769;1086;104226;-74
2022/10/23 07:36:33;;;;;;;31.90;18.43;;;;;;;12.48;80.95;100540.75;126541;1089;103365;-75
2022/10/23 07:39:02;;;;;;;35.47;19.63;;;;;;;12.48;80.72;100550.37;126219;1089;102664;-75
2022/10/23 07:41:33;;;;;;;30.43;17.13;;;;;;;12.56;81.12;100555.02;126703;1086;104947;-74
2022/10/23 07:44:02;;;;;;;30.97;17.77;;;;;;;12.62;80.63;100553.39;126473;1089;102818;-74
2022/10/23 07:46:31;;;;;;;31.07;18.13;;;;;;;12.71;81.61;100565.06;126875;1086;104235;-74
2022/10/23 07:48:59;;;;;;;33.67;17.80;;;;;;;12.75;81.32;100556.41;126170;1089;102808;-74
2022/10/23 07:51:28;;;;;;;34.70;17.30;;;;;;;12.79;81.39;100570.55;126344;1089;102243;-74
2022/10/23 07:54:00;;;;;;;29.87;17.20;;;;;;;12.81;81.34;100566.23;126174;1089;104089;-74
2022/10/23 07:56:47;;;;;;;31.57;17.67;;;;;;;12.84;81.37;100570.67;126994;1086;104159;-74
2022/10/23 07:59:21;;;;;;;29.30;17.73;;;;;;;12.92;81.27;100563.90;126214;1089;104261;-74
2022/10/23 08:01:55;;;;;;;33.63;18.03;;;;;;;12.94;81.70;100568.33;126861;1086;104149;-74
2022/10/23 08:04:24;;;;;;;32.17;18.20;;;;;;;12.97;80.86;100570.17;126246;1089;102911;-74
2022/10/23 08:06:56;;;;;;;29.17;16.00;;;;;;;13.04;81.67;100576.48;127191;1089;102798;-74
2022/10/23 08:09:25;;;;;;;32.63;17.70;;;;;;;13.09;80.99;100574.89;126406;1089;104351;-74
2022/10/23 08:11:54;;;;;;;32.37;16.50;;;;;;;13.12;81.18;100572.34;126826;1086;102878;-74
2022/10/23 08:14:23;;;;;;;32.57;17.70;;;;;;;13.13;81.15;100582.00;126362;1089;103577;-74
2022/10/23 08:16:52;;;;;;;30.00;16.20;;;;;;;13.13;80.88;100585.55;126332;1089;103346;-74
2022/10/23 08:19:20;;;;;;;30.33;17.33;;;;;;;13.19;81.66;100599.73;126745;1086;101884;-74
2022/10/23 08:21:53;;;;;;;28.70;17.07;;;;;;;13.18;81.20;100597.94;126317;1090;102406;-74
2022/10/23 08:24:22;;;;;;;30.50;16.90;;;;;;;13.22;81.18;100597.17;126442;1090;104247;-74
2022/10/23 08:26:50;;;;;;;33.13;17.93;;;;;;;13.30;81.79;100593.88;126365;1089;104229;-76
2022/10/23 08:29:21;;;;;;;32.33;17.17;;;;;;;13.50;81.66;100597.93;126283;1089;103071;-74
2022/10/23 08:31:54;;;;;;;30.67;16.93;;;;;;;13.59;81.49;100590.25;126907;1086;104149;-75
2022/10/23 08:34:36;;;;;;;34.43;18.20;;;;;;;13.67;81.66;100607.14;126783;1086;102148;-74
2022/10/23 08:37:05;;;;;;;32.60;18.50;;;;;;;13.67;81.51;100615.05;126215;1089;104257;-74
2022/10/23 08:39:35;;;;;;;34.70;18.17;;;;;;;13.60;81.77;100614.02;126609;1086;102844;-74
2022/10/23 08:42:23;;;;;;;35.33;19.13;;;;;;;13.50;81.31;100622.53;126388;1089;102028;-74
2022/10/23 08:44:59;;;;;;;36.03;19.40;;;;;;;13.38;81.54;100633.64;126421;1089;102167;-74
2022/10/23 08:47:36;;;;;;;33.20;18.73;;;;;;;13.28;81.23;100637.75;126299;1089;104155;-74
2022/10/23 08:50:27;;;;;;;36.67;21.57;;;;;;;13.21;81.58;100643.69;126728;1086;102862;-75
2022/10/23 08:53:02;;;;;;;34.90;20.50;;;;;;;13.16;82.68;100647.07;126262;1090;104264;-74
2022/10/23 08:55:34;;;;;;;37.43;21.47;;;;;;;13.13;81.82;100645.23;126692;1086;104037;-74
2022/10/23 08:58:07;;;;;;;37.50;21.00;;;;;;;13.08;81.65;100638.95;126339;1089;104111;-74
2022/10/23 09:00:35;;;;;;;38.07;22.47;;;;;;;13.04;82.10;100643.26;126613;1086;102812;-75
2022/10/23 09:03:05;;;;;;;34.80;19.70;;;;;;;13.02;81.88;100644.05;126757;1086;104159;-74
2022/10/23 09:05:41;;;;;;;37.87;21.60;;;;;;;12.98;81.56;100648.35;126789;1086;102312;-74
2022/10/23 09:08:26;;;;;;;35.73;20.90;;;;;;;12.97;82.49;100657.09;126815;1086;104222;-74
2022/10/23 09:11:06;;;;;;;38.53;22.37;;;;;;;12.94;82.82;100649.98;126799;1085;104223;-74
2022/10/23 09:14:03;;;;;;;39.63;23.43;;;;;;;12.94;82.61;100646.47;126654;1086;104066;-74
2022/10/23 09:16:42;;;;;;;37.50;22.10;;;;;;;12.94;82.57;100651.73;127635;1085;104315;-74
2022/10/23 09:19:14;;;;;;;38.93;22.83;;;;;;;12.95;82.89;100653.53;126568;1086;104283;-75
2022/10/23 09:21:48;;;;;;;42.10;24.00;;;;;;;12.95;82.93;100650.90;126702;1086;108203;-74
2022/10/23 09:24:17;;;;;;;;;;;;;;;12.94;83.51;100657.89;126870;1085;104515;-74
2022/10/23 09:26:48;;;;;;;42.60;23.03;;;;;;;12.98;83.04;100652.70;126597;1086;104656;-74
2022/10/23 09:29:23;;;;;;;37.17;21.30;;;;;;;12.99;83.12;100659.77;126718;1086;102322;-75
2022/10/23 09:31:54;;;;;;;38.77;22.23;;;;;;;13.03;83.70;100657.27;126710;1086;119658;-74
2022/10/23 09:34:24;;;;;;;38.30;23.30;;;;;;;13.05;82.74;100659.94;126617;1086;102296;-75
2022/10/23 09:36:55;;;;;;;38.37;22.40;;;;;;;13.07;83.22;100650.33;126769;1086;101813;-74
2022/10/23 09:39:29;;;;;;;38.43;22.37;;;;;;;13.09;83.46;100652.17;126973;1086;104158;-74
2022/10/23 09:41:58;;;;;;;37.48;22.15;;;;;;;13.13;83.37;100648.78;126911;1086;102796;-74
2022/10/23 09:44:29;;;;;;;35.97;22.53;;;;;;;13.16;83.24;100661.13;126944;1086;104225;-75
2022/10/23 09:47:07;;;;;;;32.93;20.23;;;;;;;13.20;83.59;100659.45;126501;1089;102792;-74
2022/10/23 09:49:45;;;;;;;36.97;21.83;;;;;;;13.26;83.27;100655.27;127901;1085;102611;-74
2022/10/23 09:52:23;;;;;;;38.53;22.40;;;;;;;13.37;83.73;100654.68;126717;1086;104162;-74
2022/10/23 09:54:56;;;;;;;40.43;22.40;;;;;;;13.45;83.27;100655.80;126809;1086;102815;-75
2022/10/23 09:57:31;;;;;;;39.03;22.97;;;;;;;13.53;83.10;100651.61;126890;1086;104235;-74
2022/10/23 10:00:03;;;;;;;35.63;21.57;;;;;;;13.60;82.61;100653.57;126808;1086;104779;-74
2022/10/23 10:02:42;;;;;;;38.97;21.70;;;;;;;13.67;83.52;100662.52;127584;1086;103335;-75
2022/10/23 10:05:42;;;;;;;38.83;21.47;;;;;;;13.71;83.61;100659.09;126396;1089;104264;-74
2022/10/23 10:08:29;;;;;;;33.67;19.25;;;;;;;13.73;82.55;100656.48;126390;1087;101932;-74
2022/10/23 10:11:04;;;;;;;36.37;20.87;;;;;;;13.76;82.61;100653.92;126809;1086;104235;-75
2022/10/23 10:13:44;;;;;;;36.40;20.37;;;;;;;13.79;82.35;100657.56;126439;1089;104182;-75
2022/10/23 10:16:20;;;;;;;36.17;20.70;;;;;;;13.81;82.85;100658.48;126800;1086;104168;-74
2022/10/23 10:18:58;;;;;;;37.07;20.73;;;;;;;13.80;82.35;100654.05;126805;1085;104152;-75
2022/10/23 10:21:32;;;;;;;33.93;20.57;;;;;;;13.81;83.28;100657.59;126796;1086;102936;-74
2022/10/23 10:24:09;;;;;;;34.70;20.43;;;;;;;13.80;83.19;100671.63;126818;1086;104310;-74
2022/10/23 10:26:45;;;;;;;34.63;20.63;;;;;;;13.79;83.22;100661.92;126708;1085;104394;-74
2022/10/23 10:29:28;;;;;;;36.83;21.57;;;;;;;13.79;82.71;100670.75;126461;1089;104292;-75
2022/10/23 10:32:14;;;;;;;36.63;21.57;;;;;;;13.80;83.44;100669.87;126785;1085;104231;-75
2022/10/23 10:34:50;;;;;;;33.37;20.47;;;;;;;13.81;83.19;100668.15;126881;1086;102559;-74
2022/10/23 10:37:28;;;;;;;35.47;20.10;;;;;;;13.83;83.63;100674.34;126833;1086;103435;-74
2022/10/23 10:40:02;;;;;;;35.87;20.80;;;;;;;13.83;83.13;100666.43;127815;1085;104166;-74
2022/10/23 10:42:54;;;;;;;36.40;22.30;;;;;;;13.82;82.68;100668.19;126736;1086;104177;-74
2022/10/23 10:45:32;;;;;;;38.80;22.10;;;;;;;13.83;82.74;100655.88;126802;1086;104162;-74
2022/10/23 10:48:27;;;;;;;37.33;21.83;;;;;;;13.89;83.13;100663.95;126758;1086;101798;-74
2022/10/23 10:51:24;;;;;;;36.30;20.53;;;;;;;13.93;83.00;100664.91;126620;1086;103107;-75
2022/10/23 10:54:11;;;;;;;35.30;20.23;;;;;;;13.96;83.65;100659.70;126865;1086;107073;-75
2022/10/23 10:56:42;;;;;;;35.70;21.63;;;;;;;13.99;82.64;100659.78;127589;1086;104348;-74
2022/10/23 10:59:18;;;;;;;35.70;20.50;;;;;;;13.99;82.72;100665.05;127369;1086;103404;-74
2022/10/23 11:01:51;;;;;;;35.57;20.30;;;;;;;14.00;83.25;100662.45;127637;1085;104166;-74
2022/10/23 11:04:31;;;;;;;36.13;21.05;;;;;;;14.03;83.18;100664.28;127022;1086;104151;-75
2022/10/23 11:07:06;;;;;;;35.57;21.43;;;;;;;14.10;82.53;100665.31;127113;1086;102228;-74
2022/10/23 11:09:35;;;;;;;36.85;21.25;;;;;;;14.15;82.37;100664.58;127200;1086;104153;-74
2022/10/23 11:12:04;;;;;;;33.05;20.00;;;;;;;14.20;83.16;100659.41;127069;1089;104213;-75
2022/10/23 11:14:34;;;;;;;37.90;20.97;;;;;;;14.24;82.38;100645.41;127446;1084;101886;-75
2022/10/23 11:17:08;;;;;;;35.87;21.00;;;;;;;14.28;83.14;100659.59;127602;1089;103523;-75
2022/10/23 11:19:43;;;;;;;32.53;19.23;;;;;;;14.35;83.01;100651.85;127012;1086;102415;-74
2022/10/23 11:22:22;;;;;;;34.97;19.57;;;;;;;14.39;83.13;100658.96;127089;1086;104184;-75
2022/10/23 11:25:25;;;;;;;32.90;18.37;;;;;;;14.46;82.89;100657.37;127091;1086;102266;-74